Time;durP1;ratioP1;P1;durP2;ratioP2;P2;SDS_P1;SDS_P2;PMS_P1;PMS_P2;Temp;Humidity;BMP_temperature;BMP_pressure;BME280_temperature;BME280_humidity;BME280_pressure;Samples;Min_cycle;Max_cycle;Signal;HPM_P1;HPM_P2
2021/11/20 00:01:57;;;;;;;36.45;18.90;;;;;;;9.44;100.00;100400.97;5022050;28;20055;-64
2021/11/20 00:04:42;;;;;;;32.65;18.02;;;;;;;9.38;100.00;100403.91;5036894;28;20505;-64
2021/11/20 00:07:27;;;;;;;37.70;17.88;;;;;;;9.27;100.00;100395.19;5036906;28;20095;-64
2021/11/20 00:10:12;;;;;;;37.13;18.60;;;;;;;9.30;100.00;100398.41;5036417;28;20104;-64
2021/11/20 00:12:56;;;;;;;40.60;18.08;;;;;;;9.41;100.00;100385.66;5021921;28;20048;-64
2021/11/20 00:15:58;;;;;;;38.10;18.95;;;;;;;9.33;100.00;100387.03;5021664;28;20088;-64
2021/11/20 00:18:43;;;;;;;36.20;17.73;;;;;;;9.22;100.00;100390.28;5021571;28;20044;-64
2021/11/20 00:21:31;;;;;;;33.90;18.13;;;;;;;9.18;100.00;100385.41;5021391;28;20052;-64
2021/11/20 00:24:20;;;;;;;31.02;16.83;;;;;;;9.03;100.00;100381.16;5007422;28;20087;-63
2021/11/20 00:27:07;;;;;;;34.00;18.50;;;;;;;9.04;100.00;100375.06;5036453;28;20048;-63
2021/11/20 00:30:12;;;;;;;35.38;19.83;;;;;;;9.08;100.00;100379.13;5007362;28;20091;-64
2021/11/20 00:33:02;;;;;;;43.85;20.45;;;;;;;9.07;100.00;100383.47;5024103;28;20080;-64
2021/11/20 00:35:46;;;;;;;44.50;22.20;;;;;;;9.23;100.00;100370.44;5021290;28;20102;-64
2021/11/20 00:38:31;;;;;;;45.83;21.98;;;;;;;9.14;100.00;100373.59;5007336;28;20107;-62
2021/11/20 00:41:24;;;;;;;39.72;20.42;;;;;;;9.18;100.00;100372.50;5021335;28;20087;-64
2021/11/20 00:44:08;;;;;;;38.65;20.63;;;;;;;9.19;100.00;100374.16;5036145;28;20059;-63
2021/11/20 00:46:52;;;;;;;43.20;21.63;;;;;;;9.18;100.00;100367.31;5020883;28;20044;-63
2021/11/20 00:49:36;;;;;;;44.33;22.73;;;;;;;9.17;100.00;100360.50;5021216;28;20056;-63
2021/11/20 00:52:20;;;;;;;43.17;21.85;;;;;;;9.10;100.00;100374.72;5036078;28;20406;-65
2021/11/20 00:55:04;;;;;;;39.72;20.83;;;;;;;9.12;100.00;100370.28;5020945;28;20456;-65
2021/11/20 00:57:48;;;;;;;44.47;21.05;;;;;;;9.13;100.00;100364.19;5007137;28;20080;-65
2021/11/20 01:00:54;;;;;;;42.53;21.95;;;;;;;9.11;100.00;100356.56;5021174;28;20056;-63
2021/11/20 01:03:38;;;;;;;42.83;22.35;;;;;;;9.24;100.00;100361.78;5021015;28;20485;-65
2021/11/20 01:06:22;;;;;;;42.72;21.83;;;;;;;9.14;100.00;100366.69;5035815;28;20135;-66
2021/11/20 01:09:08;;;;;;;45.17;22.65;;;;;;;9.23;100.00;100365.28;5035364;28;20143;-63
2021/11/20 01:11:56;;;;;;;43.38;20.90;;;;;;;9.34;100.00;100357.69;5035566;28;20056;-66
2021/11/20 01:14:43;;;;;;;41.10;22.02;;;;;;;9.39;100.00;100350.50;5035318;28;20461;-66
2021/11/20 01:17:28;;;;;;;41.83;20.60;;;;;;;9.40;100.00;100344.41;5020629;28;20111;-65
2021/11/20 01:20:13;;;;;;;42.30;19.67;;;;;;;9.40;100.00;100347.00;5020199;28;20048;-66
2021/11/20 01:22:57;;;;;;;37.35;20.55;;;;;;;9.33;100.00;100356.03;5020731;28;20120;-64
2021/11/20 01:25:43;;;;;;;41.53;20.90;;;;;;;9.18;100.00;100349.25;5020447;28;20052;-65
2021/11/20 01:28:29;;;;;;;38.00;21.13;;;;;;;9.39;100.00;100340.97;5020337;28;20061;-65
2021/11/20 01:31:13;;;;;;;41.40;20.45;;;;;;;9.13;100.00;100343.53;5020102;28;20099;-65
2021/11/20 01:33:57;;;;;;;41.55;19.48;;;;;;;9.04;100.00;100336.34;5020344;28;20055;-64
2021/11/20 01:36:42;;;;;;;47.65;22.02;;;;;;;9.23;100.00;100339.44;5035262;28;20095;-65
2021/11/20 01:39:30;;;;;;;40.47;22.48;;;;;;;9.13;100.00;100338.34;5034841;28;20067;-65
2021/11/20 01:42:21;;;;;;;44.60;22.55;;;;;;;9.29;100.00;100333.91;5035137;28;20141;-64
2021/11/20 01:45:09;;;;;;;42.85;22.33;;;;;;;9.29;100.00;100326.16;5020071;28;20403;-64
2021/11/20 01:48:20;;;;;;;51.15;23.25;;;;;;;9.28;100.00;100322.75;5020023;28;20103;-65
2021/11/20 01:51:09;;;;;;;43.53;21.20;;;;;;;9.37;100.00;100321.38;5034986;28;20501;-65
2021/11/20 01:54:20;;;;;;;44.90;22.38;;;;;;;9.36;100.00;100314.53;5034966;28;20124;-65
2021/11/20 01:57:27;;;;;;;40.05;22.02;;;;;;;9.31;100.00;100311.41;5034319;28;20457;-65
2021/11/20 02:00:23;;;;;;;45.88;22.90;;;;;;;9.33;100.00;100315.56;5019412;28;20472;-65
2021/11/20 02:03:10;;;;;;;40.65;21.40;;;;;;;9.21;100.00;100310.31;5019734;28;20056;-65
2021/11/20 02:06:17;;;;;;;39.45;21.88;;;;;;;9.33;100.00;100302.63;5034661;28;20407;-65
2021/11/20 02:09:15;;;;;;;47.15;23.20;;;;;;;9.20;100.00;100300.91;5019435;28;20047;-66
2021/11/20 02:12:10;;;;;;;41.67;21.67;;;;;;;9.30;100.00;100305.41;5019467;28;20067;-65
2021/11/20 02:14:54;;;;;;;42.53;22.10;;;;;;;9.35;100.00;100297.34;5034445;28;20048;-66
2021/11/20 02:17:46;;;;;;;49.67;23.17;;;;;;;9.39;100.00;100293.66;5034213;28;20091;-65
2021/11/20 02:20:39;;;;;;;46.47;22.50;;;;;;;9.29;100.00;100298.56;5005601;28;20044;-65
2021/11/20 02:23:22;;;;;;;46.17;21.10;;;;;;;9.16;100.00;100287.34;5034328;28;20139;-65
2021/11/20 02:26:06;;;;;;;38.33;22.33;;;;;;;9.15;100.00;100287.47;5019576;28;20086;-65
2021/11/20 02:28:51;;;;;;;;;;;;;;;9.20;100.00;100269.91;5034475;28;20084;-65
2021/11/20 02:31:50;;;;;;;47.78;22.13;;;;;;;9.33;100.00;100275.97;5034312;28;19959;-65
2021/11/20 02:34:34;;;;;;;45.13;22.23;;;;;;;9.24;100.00;100284.28;5018827;28;20129;-65
2021/11/20 02:37:19;;;;;;;45.03;22.42;;;;;;;9.26;100.00;100272.13;5018786;28;20068;-64
2021/11/20 02:40:04;;;;;;;40.72;21.80;;;;;;;9.19;100.00;100276.00;5018917;28;20132;-65
2021/11/20 02:42:48;;;;;;;40.85;21.65;;;;;;;9.09;100.00;100269.75;5034297;28;20503;-65
2021/11/20 02:45:36;;;;;;;46.38;22.92;;;;;;;9.02;100.00;100269.31;5019070;28;20040;-63
2021/11/20 02:48:21;;;;;;;44.42;22.27;;;;;;;9.08;100.00;100262.94;5018580;28;20091;-63
2021/11/20 02:51:21;;;;;;;44.45;23.58;;;;;;;9.27;100.00;100258.28;5018712;28;20083;-65
2021/11/20 02:54:13;;;;;;;46.28;23.65;;;;;;;9.29;100.00;100252.06;5033809;28;20053;-65
2021/11/20 02:57:06;;;;;;;48.60;24.38;;;;;;;9.31;100.00;100252.00;5018658;28;20048;-65
2021/11/20 02:59:50;;;;;;;49.88;24.50;;;;;;;9.21;100.00;100238.00;5033682;28;20415;-65
2021/11/20 03:02:34;;;;;;;45.22;24.90;;;;;;;9.07;100.00;100238.88;5018827;28;20056;-65
2021/11/20 03:05:20;;;;;;;47.22;23.98;;;;;;;9.12;100.00;100238.56;5018754;28;20154;-65
2021/11/20 03:08:04;;;;;;;46.42;24.05;;;;;;;9.17;100.00;100241.72;5018045;28;20052;-64
2021/11/20 03:10:48;;;;;;;;;;;;;;;9.21;100.00;100246.59;5018627;28;20079;-64
2021/11/20 03:13:32;;;;;;;50.85;26.38;;;;;;;9.08;100.00;100237.13;5018379;28;19920;-65
2021/11/20 03:16:17;;;;;;;47.00;24.02;;;;;;;9.02;100.00;100232.34;5033240;28;20080;-65
2021/11/20 03:19:00;;;;;;;46.10;23.23;;;;;;;9.04;100.00;100236.47;5033426;28;20052;-66
2021/11/20 03:21:48;;;;;;;55.80;26.13;;;;;;;9.06;100.00;100229.47;5033231;28;20052;-65
2021/11/20 03:24:33;;;;;;;50.95;25.23;;;;;;;9.11;100.00;100226.59;5004617;28;20048;-65
2021/11/20 03:27:18;;;;;;;45.42;24.13;;;;;;;9.24;100.00;100222.31;5018438;28;20048;-65
2021/11/20 03:30:06;;;;;;;49.38;24.80;;;;;;;9.24;100.00;100223.16;5004257;28;20071;-65
2021/11/20 03:32:51;;;;;;;48.08;24.83;;;;;;;9.30;100.00;100227.09;5018404;28;20048;-65
2021/11/20 03:35:35;;;;;;;48.97;26.52;;;;;;;9.28;100.00;100232.34;5018249;28;20056;-65
2021/11/20 03:38:19;;;;;;;47.90;24.15;;;;;;;9.32;100.00;100232.97;5018315;28;20126;-65
2021/11/20 03:41:04;;;;;;;53.55;27.70;;;;;;;9.24;100.00;100230.06;5018342;28;20553;-65
2021/11/20 03:43:49;;;;;;;47.75;25.67;;;;;;;9.25;100.00;100229.13;5033276;28;20056;-64
2021/11/20 03:46:33;;;;;;;50.33;25.25;;;;;;;9.24;100.00;100220.56;5018107;28;20132;-66
2021/11/20 03:49:18;;;;;;;48.50;24.83;;;;;;;9.39;100.00;100221.34;5004535;28;20053;-66
2021/11/20 03:52:02;;;;;;;44.45;24.80;;;;;;;9.43;100.00;100222.78;5032925;28;20138;-65
2021/11/20 03:54:49;;;;;;;45.30;23.23;;;;;;;9.42;100.00;100221.13;5017962;28;20048;-66
2021/11/20 03:57:33;;;;;;;45.35;24.90;;;;;;;9.42;100.00;100221.97;5017914;28;20132;-65
2021/11/20 04:00:19;;;;;;;48.13;24.55;;;;;;;9.44;100.00;100211.53;5033035;28;20512;-66
2021/11/20 04:03:03;;;;;;;44.22;23.70;;;;;;;9.42;100.00;100215.97;5018243;28;20068;-64
2021/11/20 04:05:49;;;;;;;43.55;23.73;;;;;;;9.48;100.00;100203.47;5033035;28;20470;-66
2021/11/20 04:08:33;;;;;;;45.50;23.75;;;;;;;9.49;100.00;100192.22;5032576;28;20195;-65
2021/11/20 04:11:21;;;;;;;48.55;25.75;;;;;;;9.45;100.00;100195.09;5153586;22;20035;-61
2021/11/20 04:14:05;;;;;;;47.95;24.40;;;;;;;9.34;100.00;100192.38;5032019;28;20102;-67
2021/11/20 04:16:50;;;;;;;45.92;23.85;;;;;;;9.40;100.00;100192.00;5031928;28;20115;-67
2021/11/20 04:19:34;;;;;;;49.50;24.13;;;;;;;9.45;100.00;100190.75;5031725;28;20048;-67
2021/11/20 04:22:18;;;;;;;41.63;22.35;;;;;;;9.42;100.00;100206.47;5035558;28;20049;-67
2021/11/20 04:25:06;;;;;;;45.28;24.48;;;;;;;9.40;100.00;100197.16;5035611;28;20048;-68
2021/11/20 04:27:50;;;;;;;52.63;25.10;;;;;;;9.33;100.00;100195.88;5036298;28;20048;-67
2021/11/20 04:30:34;;;;;;;43.40;23.10;;;;;;;9.40;100.00;100186.81;5036338;28;20072;-64
2021/11/20 04:33:18;;;;;;;45.17;24.92;;;;;;;9.38;100.00;100191.28;5035125;28;20103;-67
2021/11/20 04:36:03;;;;;;;42.15;23.30;;;;;;;9.32;100.00;100184.75;5036049;28;20549;-67
2021/11/20 04:38:47;;;;;;;47.22;24.55;;;;;;;9.35;100.00;100194.88;5035033;28;20103;-68
2021/11/20 04:41:32;;;;;;;48.17;23.25;;;;;;;9.33;100.00;100188.13;5035979;28;20084;-68
2021/11/20 04:44:16;;;;;;;42.38;22.38;;;;;;;9.19;100.00;100183.03;5035250;28;20072;-67
2021/11/20 04:47:00;;;;;;;43.42;22.70;;;;;;;9.19;100.00;100178.69;5021219;28;20041;-67
2021/11/20 04:49:44;;;;;;;41.72;23.10;;;;;;;9.14;100.00;100169.59;5035193;28;20410;-67
2021/11/20 04:52:28;;;;;;;45.72;23.92;;;;;;;9.00;100.00;100172.22;5035050;28;20052;-67
2021/11/20 04:55:13;;;;;;;45.67;23.67;;;;;;;9.11;100.00;100170.63;5035861;28;20079;-67
2021/11/20 04:57:57;;;;;;;47.95;24.77;;;;;;;9.17;100.00;100174.56;5034973;28;20044;-66
2021/11/20 05:00:44;;;;;;;42.65;23.10;;;;;;;9.19;100.00;100164.97;5034907;28;20053;-67
2021/11/20 05:03:29;;;;;;;47.03;25.27;;;;;;;9.11;100.00;100154.28;5034800;28;20100;-67
2021/11/20 05:06:14;;;;;;;43.50;24.30;;;;;;;9.08;100.00;100160.47;5035104;28;20100;-67
2021/11/20 05:08:59;;;;;;;44.25;24.45;;;;;;;9.06;100.00;100151.19;5034699;28;20115;-68
2021/11/20 05:11:44;;;;;;;51.90;25.30;;;;;;;8.95;100.00;100151.06;5035351;28;20084;-67
2021/11/20 05:14:28;;;;;;;45.92;24.95;;;;;;;8.86;100.00;100151.63;5035336;28;20048;-67
2021/11/20 05:17:12;;;;;;;44.85;24.23;;;;;;;8.82;100.00;100142.41;5034884;28;20594;-69
2021/11/20 05:19:56;;;;;;;44.92;24.15;;;;;;;8.87;100.00;100148.13;5034620;28;20187;-67
2021/11/20 05:22:40;;;;;;;49.97;24.42;;;;;;;8.88;100.00;100142.03;5035428;28;20509;-67
2021/11/20 05:25:25;;;;;;;49.58;26.05;;;;;;;8.83;100.00;100138.91;5034174;28;20138;-67
2021/11/20 05:28:09;;;;;;;46.10;24.27;;;;;;;8.76;100.00;100138.47;5034363;28;20080;-67
2021/11/20 05:30:54;;;;;;;48.80;24.52;;;;;;;8.77;100.00;100140.13;5020295;28;20049;-67
2021/11/20 05:33:42;;;;;;;47.63;24.13;;;;;;;8.75;100.00;100136.00;5019695;28;20048;-67
2021/11/20 05:36:30;;;;;;;50.97;25.92;;;;;;;8.57;100.00;100132.78;5034226;28;20111;-67
2021/11/20 05:39:14;;;;;;;50.42;25.15;;;;;;;8.43;100.00;100119.09;5034987;28;20442;-67
2021/11/20 05:41:59;;;;;;;52.47;26.45;;;;;;;8.38;100.00;100123.72;5034151;28;20136;-66
2021/11/20 05:44:43;;;;;;;54.42;26.73;;;;;;;8.50;100.00;100128.13;5020152;28;20045;-67
2021/11/20 05:47:27;;;;;;;56.15;27.27;;;;;;;8.41;100.00;100121.78;5033842;28;20052;-67
2021/11/20 05:50:11;;;;;;;49.15;26.00;;;;;;;8.39;100.00;100130.53;5034977;28;20411;-66
2021/11/20 05:52:56;;;;;;;55.92;26.27;;;;;;;8.42;100.00;100123.44;5019666;28;20080;-67
2021/11/20 05:55:42;;;;;;;53.83;28.23;;;;;;;8.31;100.00;100119.88;5019782;28;20414;-67
2021/11/20 05:58:26;;;;;;;50.85;26.58;;;;;;;8.35;100.00;100123.94;5019910;28;20111;-67
2021/11/20 06:01:13;;;;;;;60.85;26.48;;;;;;;8.26;100.00;100124.50;5019735;28;20119;-67
2021/11/20 06:03:57;;;;;;;57.25;26.73;;;;;;;8.26;100.00;100127.88;5033490;28;20055;-66
2021/11/20 06:06:41;;;;;;;57.83;26.33;;;;;;;8.50;100.00;100115.22;5033472;28;20099;-66
2021/11/20 06:09:26;;;;;;;57.00;28.42;;;;;;;8.56;100.00;100120.81;5033676;28;20552;-67
2021/11/20 06:12:11;;;;;;;59.00;29.60;;;;;;;8.38;100.00;100121.16;5033599;28;20043;-67
2021/11/20 06:14:55;;;;;;;53.13;28.00;;;;;;;8.43;100.00;100122.53;5019241;28;20099;-66
2021/11/20 06:17:39;;;;;;;57.58;27.20;;;;;;;8.36;100.00;100123.00;5033508;28;20051;-67
2021/11/20 06:20:24;;;;;;;64.97;27.55;;;;;;;8.42;100.00;100128.59;5033450;28;20068;-67
2021/11/20 06:23:09;;;;;;;59.03;27.45;;;;;;;8.40;100.00;100129.63;5033326;28;20152;-67
2021/11/20 06:25:53;;;;;;;58.10;24.17;;;;;;;8.42;100.00;100131.19;5019492;28;20088;-67
2021/11/20 06:28:38;;;;;;;131.43;27.10;;;;;;;8.44;100.00;100131.09;5034026;28;20469;-67
2021/11/20 06:31:23;;;;;;;83.03;26.90;;;;;;;8.41;100.00;100133.84;5018942;28;20052;-67
2021/11/20 06:34:07;;;;;;;139.18;27.25;;;;;;;8.42;100.00;100135.50;5033468;28;20194;-67
2021/11/20 06:36:52;;;;;;;161.93;28.38;;;;;;;8.36;100.00;100134.13;5032760;28;20045;-67
2021/11/20 06:39:37;;;;;;;116.18;26.48;;;;;;;8.25;100.00;100141.69;5032992;28;20064;-65
2021/11/20 06:42:21;;;;;;;67.30;26.25;;;;;;;8.28;100.00;100140.69;5033961;28;20056;-67
2021/11/20 06:45:06;;;;;;;63.95;25.25;;;;;;;8.32;100.00;100142.16;5033054;28;20044;-67
2021/11/20 06:47:51;;;;;;;60.53;24.25;;;;;;;8.32;100.00;100145.56;5032816;28;20076;-66
2021/11/20 06:50:36;;;;;;;51.30;22.92;;;;;;;8.25;100.00;100135.72;5032905;28;20095;-67
2021/11/20 06:53:21;;;;;;;52.00;22.30;;;;;;;8.07;100.00;100141.97;5033816;28;20103;-67
2021/11/20 06:56:05;;;;;;;66.45;23.80;;;;;;;8.06;100.00;100143.69;5032537;28;20132;-67
2021/11/20 07:01:33;;;;;;;44.40;21.15;;;;;;;8.01;100.00;100148.31;5032931;28;20044;-67
2021/11/20 07:04:21;;;;;;;45.10;20.77;;;;;;;8.11;100.00;100144.25;5032453;28;20132;-66
2021/11/20 07:07:09;;;;;;;48.45;22.73;;;;;;;8.21;100.00;100147.13;5032438;28;20107;-67
2021/11/20 07:09:55;;;;;;;53.40;22.42;;;;;;;8.17;100.00;100149.03;5019194;28;20087;-67
2021/11/20 07:12:39;;;;;;;57.08;22.58;;;;;;;8.08;100.00;100151.34;5033177;28;20055;-67
2021/11/20 07:15:24;;;;;;;58.38;24.25;;;;;;;8.22;100.00;100151.38;5032459;28;20138;-67
2021/11/20 07:18:08;;;;;;;61.75;22.55;;;;;;;8.25;100.00;100152.00;5032571;28;20481;-67
2021/11/20 07:20:53;;;;;;;70.75;24.13;;;;;;;8.18;100.00;100147.28;5018293;28;20080;-67
2021/11/20 07:23:37;;;;;;;77.15;22.75;;;;;;;8.13;100.00;100146.75;5018523;28;20056;-66
2021/11/20 07:26:22;;;;;;;55.60;22.67;;;;;;;8.22;100.00;100148.78;5032475;28;20095;-67
2021/11/20 07:29:06;;;;;;;48.85;22.38;;;;;;;8.28;100.00;100141.53;5018414;28;20048;-67
2021/11/20 07:31:50;;;;;;;54.38;22.70;;;;;;;8.36;100.00;100143.63;5032045;28;20048;-67
2021/11/20 07:34:34;;;;;;;69.60;21.92;;;;;;;8.26;100.00;100137.38;5018401;28;20048;-68
2021/11/20 07:37:18;;;;;;;48.92;19.92;;;;;;;8.30;100.00;100133.69;5032382;28;20064;-68
2021/11/20 07:40:07;;;;;;;50.13;21.60;;;;;;;8.38;100.00;100123.72;5018425;28;20560;-68
2021/11/20 07:42:51;;;;;;;56.13;19.10;;;;;;;8.07;100.00;100116.19;5032915;28;20067;-67
2021/11/20 07:45:35;;;;;;;79.25;20.08;;;;;;;7.96;100.00;100134.03;5032314;28;20053;-65
2021/11/20 07:48:22;;;;;;;45.80;18.00;;;;;;;7.79;100.00;100137.63;5032073;28;20088;-67
2021/11/20 07:51:07;;;;;;;53.85;19.10;;;;;;;7.83;100.00;100133.13;5017939;28;20048;-67
2021/11/20 07:53:51;;;;;;;51.53;19.90;;;;;;;7.71;100.00;100129.53;5033386;28;20075;-65
2021/11/20 07:56:41;;;;;;;42.05;18.10;;;;;;;7.86;100.00;100125.22;5035169;28;20057;-68
2021/11/20 07:59:25;;;;;;;59.65;21.52;;;;;;;7.91;100.00;100123.16;5036236;28;20044;-67
2021/11/20 08:02:09;;;;;;;50.78;20.25;;;;;;;7.96;100.00;100118.59;5035947;28;20052;-67
2021/11/20 08:04:53;;;;;;;59.42;22.45;;;;;;;8.07;100.00;100116.19;5022313;28;20170;-67
2021/11/20 08:07:38;;;;;;;52.53;19.67;;;;;;;8.08;100.00;100107.53;5036699;28;20060;-67
2021/11/20 08:10:23;;;;;;;53.35;21.40;;;;;;;8.26;100.00;100102.09;5035644;28;20099;-67
2021/11/20 08:13:08;;;;;;;47.65;19.48;;;;;;;8.10;100.00;100100.53;5021725;28;20052;-67
2021/11/20 08:15:52;;;;;;;38.70;17.90;;;;;;;8.26;100.00;100094.34;5036436;28;20569;-67
2021/11/20 08:18:37;;;;;;;45.47;19.77;;;;;;;8.39;100.00;100090.13;5022035;28;20206;-67
2021/11/20 08:21:21;;;;;;;42.75;18.92;;;;;;;8.55;100.00;100088.22;5021759;28;20632;-68
2021/11/20 08:24:06;;;;;;;47.47;19.38;;;;;;;8.62;100.00;100088.66;5035389;28;20083;-67
2021/11/20 08:26:50;;;;;;;40.97;18.63;;;;;;;8.67;100.00;100084.84;5021304;28;20144;-68
2021/11/20 08:29:37;;;;;;;38.75;18.02;;;;;;;8.69;100.00;100088.19;5036218;28;20131;-65
2021/11/20 08:32:22;;;;;;;40.97;19.20;;;;;;;8.76;100.00;100080.88;5035227;28;20068;-67
2021/11/20 08:35:07;;;;;;;37.22;17.13;;;;;;;8.83;100.00;100070.06;5036071;28;20092;-67
2021/11/20 08:37:51;;;;;;;37.90;17.45;;;;;;;8.94;100.00;100071.94;5021054;28;20045;-66
2021/11/20 08:40:36;;;;;;;37.83;17.27;;;;;;;8.87;100.00;100065.53;5034544;28;20505;-66
2021/11/20 08:43:28;;;;;;;38.95;18.27;;;;;;;9.00;100.00;100066.38;5035453;28;20168;-68
2021/11/20 08:46:12;;;;;;;34.75;18.08;;;;;;;9.08;100.00;100070.09;5034542;28;20040;-68
2021/11/20 08:48:57;;;;;;;33.80;18.27;;;;;;;9.17;100.00;100071.28;5035790;28;20466;-67
2021/11/20 08:51:43;;;;;;;33.55;16.98;;;;;;;9.30;100.00;100067.78;5034407;28;20053;-68
2021/11/20 08:54:27;;;;;;;35.50;17.75;;;;;;;9.52;100.00;100067.16;5034235;28;20056;-67
2021/11/20 08:57:11;;;;;;;33.03;16.35;;;;;;;9.62;100.00;100068.19;5034460;28;20175;-67
2021/11/20 08:59:55;;;;;;;34.90;17.35;;;;;;;9.74;100.00;100068.19;5020373;28;20056;-66
2021/11/20 09:02:43;;;;;;;30.90;17.60;;;;;;;9.85;100.00;100064.88;5035516;28;20087;-65
2021/11/20 09:05:53;;;;;;;32.60;16.95;;;;;;;9.77;100.00;100062.81;5020352;28;20052;-67
2021/11/20 09:08:48;;;;;;;31.50;16.77;;;;;;;9.87;100.00;100052.69;5033993;28;20525;-68
2021/11/20 09:11:32;;;;;;;32.08;16.70;;;;;;;9.97;100.00;100064.03;5033793;28;20106;-67
2021/11/20 09:14:22;;;;;;;30.48;17.48;;;;;;;10.04;100.00;100057.53;5034268;28;20072;-67
2021/11/20 09:17:07;;;;;;;29.83;16.00;;;;;;;10.13;100.00;100059.47;5034971;28;20580;-66
2021/11/20 09:19:51;;;;;;;33.88;16.60;;;;;;;10.03;98.61;100058.47;5020199;28;20083;-66
2021/11/20 09:22:36;;;;;;;26.00;14.77;;;;;;;9.85;98.35;100062.28;5019757;28;20052;-62
2021/11/20 09:25:21;;;;;;;26.10;15.13;;;;;;;10.01;99.96;100055.13;5033981;28;20052;-66
2021/11/20 09:28:08;;;;;;;30.25;16.58;;;;;;;10.16;100.00;100051.50;5033818;28;20132;-66
2021/11/20 09:30:56;;;;;;;32.83;17.67;;;;;;;10.34;98.86;100059.63;5034097;28;20107;-66
2021/11/20 09:33:41;;;;;;;30.60;17.45;;;;;;;10.40;96.62;100061.78;5034481;28;20146;-66
2021/11/20 09:36:26;;;;;;;27.65;15.70;;;;;;;10.38;96.04;100050.72;5034567;28;20052;-65
2021/11/20 09:39:12;;;;;;;29.55;16.58;;;;;;;10.40;95.05;100048.84;5033621;28;20151;-66
2021/11/20 09:41:56;;;;;;;30.30;16.70;;;;;;;10.29;95.00;100046.19;5019636;28;20044;-66
2021/11/20 09:44:43;;;;;;;28.08;16.38;;;;;;;10.42;95.41;100046.97;5034407;28;20048;-66
2021/11/20 09:47:36;;;;;;;27.70;15.00;;;;;;;10.53;95.69;100041.03;5033481;28;20083;-66
2021/11/20 09:50:19;;;;;;;25.35;14.25;;;;;;;10.67;94.51;100041.66;5033493;28;20049;-66
2021/11/20 09:53:06;;;;;;;28.83;14.90;;;;;;;10.87;93.37;100040.25;5033025;28;20091;-66
2021/11/20 09:55:57;;;;;;;25.58;14.60;;;;;;;11.11;89.76;100036.69;5019414;28;20111;-66
2021/11/20 09:58:49;;;;;;;26.27;14.25;;;;;;;11.34;89.96;100035.78;5033096;28;20505;-65
2021/11/20 10:01:43;;;;;;;24.20;14.60;;;;;;;11.62;87.36;100032.78;5018924;28;20518;-65
2021/11/20 10:04:33;;;;;;;19.70;12.43;;;;;;;11.69;85.03;100028.78;5033298;28;20186;-66
2021/11/20 10:07:23;;;;;;;18.85;11.95;;;;;;;11.93;84.87;100023.47;5019447;28;20133;-65
2021/11/20 10:10:31;;;;;;;18.70;11.68;;;;;;;12.15;83.68;100032.06;5033026;28;20044;-66
2021/11/20 10:13:22;;;;;;;18.25;11.13;;;;;;;12.17;80.15;100034.53;5032736;28;20088;-66
2021/11/20 10:16:18;;;;;;;18.38;11.18;;;;;;;12.09;80.36;100024.75;5018699;28;20095;-66
2021/11/20 10:19:19;;;;;;;18.52;12.20;;;;;;;12.11;80.35;100028.06;5032371;28;20048;-66
2021/11/20 10:22:39;;;;;;;19.15;12.05;;;;;;;12.49;80.04;100019.84;5032481;28;20044;-65
2021/11/20 10:25:48;;;;;;;19.95;11.00;;;;;;;12.81;76.91;100011.09;5027198;28;20532;-65
2021/11/20 10:29:03;;;;;;;17.95;11.38;;;;;;;13.12;75.70;100005.88;5032674;28;20052;-66
2021/11/20 10:31:51;;;;;;;19.02;11.65;;;;;;;13.43;73.78;100004.97;5018296;28;20099;-66
2021/11/20 10:34:45;;;;;;;22.60;11.98;;;;;;;13.97;71.63;99994.25;5032359;28;20056;-64
2021/11/20 10:37:42;;;;;;;18.48;11.18;;;;;;;15.70;62.44;99994.00;5033513;28;20462;-67
2021/11/20 10:40:34;;;;;;;20.25;11.80;;;;;;;17.72;54.81;99980.84;5032269;28;20084;-67
2021/11/20 10:43:35;;;;;;;15.13;10.73;;;;;;;20.19;50.08;99971.47;5032204;28;20526;-66
2021/11/20 10:46:33;;;;;;;16.38;10.27;;;;;;;20.40;46.73;99975.09;5032221;28;20095;-67
2021/11/20 10:49:34;;;;;;;16.20;10.35;;;;;;;19.60;47.33;99967.53;5032478;28;20048;-67
2021/11/20 10:52:48;;;;;;;12.68;9.38;;;;;;;18.02;49.89;99972.47;5032341;28;20091;-67
2021/11/20 10:56:10;;;;;;;14.55;10.48;;;;;;;15.61;57.64;99957.47;5031865;28;20048;-66
2021/11/20 10:59:17;;;;;;;16.05;11.55;;;;;;;15.01;63.44;99959.69;5032044;28;20121;-66
2021/11/20 11:02:25;;;;;;;15.77;10.50;;;;;;;14.31;63.64;99957.38;5032827;28;20545;-66
2021/11/20 11:05:21;;;;;;;13.65;9.32;;;;;;;14.72;63.27;99945.88;5032050;28;20572;-66
2021/11/20 11:08:22;;;;;;;14.25;10.05;;;;;;;15.03;63.74;99939.50;5033297;28;20044;-66
2021/11/20 11:11:44;;;;;;;18.38;11.32;;;;;;;15.75;61.62;99931.72;5031688;28;20084;-66
2021/11/20 11:14:51;;;;;;;15.75;11.20;;;;;;;16.73;57.27;99915.13;5017096;28;20052;-66
2021/11/20 11:17:46;;;;;;;16.35;10.00;;;;;;;17.30;54.04;99911.91;5032280;28;20048;-67
2021/11/20 11:20:48;;;;;;;16.00;10.40;;;;;;;18.36;51.11;99906.94;5031962;28;20048;-67
2021/11/20 11:23:58;;;;;;;15.80;10.70;;;;;;;17.97;51.04;99911.06;5031848;28;20458;-67
2021/11/20 11:26:58;;;;;;;15.63;10.43;;;;;;;16.58;55.15;99914.00;5032691;28;20036;-65
2021/11/20 11:30:06;;;;;;;13.45;10.38;;;;;;;16.45;56.60;99903.13;5017293;28;20572;-66
2021/11/20 11:32:54;;;;;;;13.82;9.93;;;;;;;16.31;58.27;99903.63;5032428;28;20125;-67
2021/11/20 11:36:05;;;;;;;13.82;9.18;;;;;;;15.69;59.00;99893.19;5031457;28;20151;-67
2021/11/20 11:38:59;;;;;;;11.50;8.65;;;;;;;15.30;61.45;99893.47;5032439;28;20044;-66
2021/11/20 11:42:03;;;;;;;11.15;8.23;;;;;;;14.41;63.76;99889.66;5031299;28;20154;-66
2021/11/20 11:45:08;;;;;;;11.13;7.80;;;;;;;14.63;64.26;99876.34;5017744;28;20088;-66
2021/11/20 11:47:52;;;;;;;10.52;6.82;;;;;;;14.81;63.79;99879.88;5031151;28;20125;-64
2021/11/20 11:51:00;;;;;;;10.73;7.28;;;;;;;14.24;65.48;99872.13;5032255;28;20048;-65
2021/11/20 11:54:12;;;;;;;10.13;7.40;;;;;;;14.07;67.36;99871.00;5032847;28;20052;-66
2021/11/20 11:57:07;;;;;;;9.93;6.53;;;;;;;13.67;68.22;99864.22;5032362;28;20506;-65
2021/11/20 12:00:04;;;;;;;8.27;6.07;;;;;;;13.90;69.23;99860.44;5031447;28;20053;-65
2021/11/20 12:02:52;;;;;;;10.07;6.97;;;;;;;13.74;69.34;99854.91;5043690;23;20123;-65
2021/11/20 12:05:41;;;;;;;11.07;7.32;;;;;;;13.97;68.18;99845.94;5012589;28;20121;-65
2021/11/20 12:08:34;;;;;;;10.25;7.53;;;;;;;13.58;69.19;99837.22;4997715;28;20053;-65
2021/11/20 12:11:27;;;;;;;10.38;7.63;;;;;;;13.61;68.82;99841.34;5012536;28;20120;-65
2021/11/20 12:14:14;;;;;;;12.40;7.88;;;;;;;13.69;69.07;99823.28;4993050;28;20124;-62
2021/11/20 12:17:01;;;;;;;11.25;7.30;;;;;;;14.25;67.05;99809.50;4993006;28;20045;-64
2021/11/20 12:19:51;;;;;;;10.45;7.38;;;;;;;14.67;64.42;99802.19;4992903;28;20057;-64
2021/11/20 12:23:01;;;;;;;9.60;6.82;;;;;;;13.56;67.77;99805.34;4991719;28;20044;-63
2021/11/20 12:25:47;;;;;;;7.95;5.75;;;;;;;13.31;69.27;99795.44;4992326;28;20137;-64
2021/11/20 12:28:51;;;;;;;8.25;6.40;;;;;;;14.01;66.94;99792.63;4991946;28;20076;-64
2021/11/20 12:31:57;;;;;;;8.52;6.57;;;;;;;15.92;60.56;99784.78;4992959;28;20054;-64
2021/11/20 12:35:10;;;;;;;8.25;6.13;;;;;;;16.85;56.33;99785.81;4992711;28;20423;-65
2021/11/20 12:38:10;;;;;;;8.65;5.82;;;;;;;17.29;55.64;99774.22;4991974;28;20061;-65
2021/11/20 12:41:09;;;;;;;8.15;6.15;;;;;;;18.32;50.24;99758.88;4992570;28;20116;-64
2021/11/20 12:44:22;;;;;;;8.00;5.30;;;;;;;17.74;51.39;99756.38;4967694;28;20045;-64
2021/11/20 12:47:36;;;;;;;7.63;4.90;;;;;;;17.36;51.99;99754.34;4972875;28;20061;-65
2021/11/20 12:50:48;;;;;;;6.93;5.43;;;;;;;17.36;51.99;99754.34;4995135;28;20084;-65
2021/11/20 12:53:51;;;;;;;7.78;6.20;;;;;;;19.76;47.41;99727.66;4996171;28;20073;-65
2021/11/20 12:56:40;;;;;;;6.85;5.10;;;;;;;20.48;44.11;99719.16;4996127;28;20080;-64